createdAt,value
2023-02-11T05:00:33.257Z,84.18
2023-02-11T05:01:33.232Z,84.43
2023-02-11T05:02:33.156Z,83.97
2023-02-11T05:03:33.146Z,84.22
2023-02-11T05:04:33.225Z,84.33
2023-02-11T05:05:33.134Z,84.74
2023-02-11T05:06:33.117Z,84.43
2023-02-11T05:07:33.106Z,84.74
2023-02-11T05:08:33.087Z,84.84
2023-02-11T05:09:33.082Z,85.16
2023-02-11T05:10:41.512Z,85.26
2023-02-11T05:11:38.080Z,85.61
2023-02-11T05:12:33.060Z,85.36
2023-02-11T05:13:33.049Z,85.30
2023-02-11T05:14:33.074Z,85.41
2023-02-11T05:15:33.026Z,85.82
2023-02-11T05:16:33.054Z,85.51
2023-02-11T05:17:32.999Z,85.51
2023-02-11T05:18:32.985Z,86.49
2023-02-11T05:19:32.971Z,85.24
2023-02-11T05:20:32.966Z,85.34
2023-02-11T05:21:32.942Z,85.13
2023-02-11T05:22:37.955Z,85.86
2023-02-11T05:23:32.989Z,85.55
2023-02-11T05:24:32.909Z,85.44
2023-02-11T05:25:32.911Z,85.55
2023-02-11T05:26:32.944Z,85.44
2023-02-11T05:27:32.878Z,85.65
2023-02-11T05:28:32.966Z,85.65
2023-02-11T05:29:32.871Z,85.65
2023-02-11T05:30:32.915Z,85.24
2023-02-11T05:31:32.835Z,85.34
2023-02-11T05:32:32.847Z,85.97
2023-02-11T05:33:37.834Z,85.44
2023-02-11T05:34:32.803Z,85.49
2023-02-11T05:35:32.806Z,85.49
2023-02-11T05:36:33.549Z,85.69
2023-02-11T05:37:32.812Z,86.53
2023-02-11T05:38:32.759Z,86.32
2023-02-11T05:39:32.853Z,86.21
2023-02-11T05:40:32.767Z,86.11
2023-02-11T05:41:33.035Z,85.90
2023-02-11T05:42:32.735Z,86.11
2023-02-11T05:43:32.698Z,85.90
2023-02-11T05:44:37.709Z,85.49
2023-02-11T05:45:32.676Z,85.69
2023-02-11T05:46:32.814Z,85.80
2023-02-11T05:47:32.654Z,86.11
2023-02-11T05:48:32.665Z,85.59
2023-02-11T05:49:32.631Z,85.83
2023-02-11T05:50:32.625Z,86.15
2023-02-11T05:51:32.632Z,86.36
2023-02-11T05:52:32.635Z,86.15
2023-02-11T05:53:32.608Z,86.67
2023-02-11T05:54:32.618Z,86.84
2023-02-11T05:55:37.702Z,86.36
2023-02-11T05:56:32.570Z,86.46
2023-02-11T05:57:32.678Z,86.46
2023-02-11T05:58:32.537Z,86.00
2023-02-11T05:59:32.539Z,85.94
2023-02-11T06:00:32.518Z,85.94
2023-02-11T06:01:32.521Z,86.15
2023-02-11T06:02:32.605Z,86.15
2023-02-11T06:03:32.538Z,86.25
2023-02-11T06:04:32.484Z,86.15
2023-02-11T06:05:32.461Z,86.05
2023-02-11T06:06:37.501Z,86.00
2023-02-11T06:07:32.437Z,85.90
2023-02-11T06:08:32.429Z,86.15
2023-02-11T06:09:32.425Z,86.21
2023-02-11T06:10:32.404Z,86.32
2023-02-11T06:11:32.418Z,86.11
2023-02-11T06:12:32.387Z,86.15
2023-02-11T06:13:32.367Z,86.00
2023-02-11T06:14:32.358Z,86.11
2023-02-11T06:15:32.345Z,86.11
2023-02-11T06:16:32.527Z,86.11
2023-02-11T06:17:37.352Z,86.32
2023-02-11T06:18:32.320Z,86.43
2023-02-11T06:19:32.306Z,86.11
2023-02-11T06:20:32.327Z,85.90
2023-02-11T06:21:43.277Z,85.80
2023-02-11T06:22:34.853Z,85.49
2023-02-11T06:23:32.263Z,85.17
2023-02-11T06:24:58.606Z,85.13
2023-02-11T06:25:33.235Z,85.38
2023-02-11T06:26:32.246Z,85.24
2023-02-11T06:27:32.224Z,84.92
2023-02-11T06:28:38.763Z,85.69
2023-02-11T06:29:32.188Z,85.34
2023-02-11T06:30:32.256Z,85.13
2023-02-11T06:31:32.284Z,85.34
2023-02-11T06:32:44.370Z,85.34
2023-02-11T06:33:33.212Z,85.86
2023-02-11T06:34:32.142Z,85.55
2023-02-11T06:35:32.126Z,85.44
2023-02-11T06:36:32.131Z,85.44
2023-02-11T06:37:32.110Z,85.34
2023-02-11T06:38:32.110Z,85.44
2023-02-11T06:39:37.114Z,85.55
2023-02-11T06:40:32.068Z,85.61
2023-02-11T06:41:32.064Z,85.30
2023-02-11T06:42:32.057Z,84.99
2023-02-11T06:43:32.062Z,85.30
2023-02-11T06:44:32.027Z,85.41
2023-02-11T06:45:32.037Z,85.20
2023-02-11T06:46:32.111Z,84.99
2023-02-11T06:47:32.036Z,84.57
2023-02-11T06:48:31.989Z,84.88
2023-02-11T06:49:31.973Z,84.57
2023-02-11T06:50:37.059Z,84.82
2023-02-11T06:51:31.949Z,84.78
2023-02-11T06:52:31.976Z,84.67
2023-02-11T06:53:31.948Z,85.41
2023-02-11T06:54:31.965Z,85.30
2023-02-11T06:55:31.903Z,85.10
2023-02-11T06:56:31.906Z,85.34
2023-02-11T06:57:31.895Z,85.10
2023-02-11T06:58:31.912Z,85.61
2023-02-11T06:59:31.864Z,84.57
2023-02-11T07:00:31.860Z,84.78
2023-02-11T07:01:36.919Z,84.36
2023-02-11T07:02:31.861Z,84.88
2023-02-11T07:03:31.819Z,84.88
2023-02-11T07:04:31.807Z,84.57
2023-02-11T07:05:31.808Z,84.57
2023-02-11T07:06:31.792Z,84.57
2023-02-11T07:07:34.004Z,85.51
2023-02-11T07:08:31.779Z,84.88
2023-02-11T07:09:31.748Z,85.20
2023-02-11T07:10:31.737Z,85.30
2023-02-11T07:11:31.738Z,85.61
2023-02-11T07:12:36.752Z,85.41
2023-02-11T07:13:31.705Z,84.67
2023-02-11T07:14:31.741Z,84.67
2023-02-11T07:15:31.684Z,85.20
2023-02-11T07:16:31.713Z,84.88
2023-02-11T07:17:31.723Z,85.61
2023-02-11T07:18:31.668Z,84.99
2023-02-11T07:19:31.644Z,85.51
2023-02-11T07:20:31.629Z,85.61
2023-02-11T07:21:31.643Z,85.41
2023-02-11T07:22:31.629Z,85.30
2023-02-11T07:23:36.633Z,85.41
2023-02-11T07:24:31.582Z,85.58
2023-02-11T07:25:31.601Z,84.67
2023-02-11T07:26:31.624Z,84.36
2023-02-11T07:27:31.561Z,84.84
2023-02-11T07:28:31.621Z,84.22
2023-02-11T07:29:31.528Z,84.53
2023-02-11T07:30:31.522Z,83.80
2023-02-11T07:31:31.733Z,84.74
2023-02-11T07:32:31.502Z,83.70
2023-02-11T07:33:31.482Z,83.76
2023-02-11T07:34:36.507Z,83.97
2023-02-11T07:35:31.462Z,84.08
2023-02-11T07:36:31.449Z,83.87
2023-02-11T07:37:31.449Z,83.66
2023-02-11T07:38:31.439Z,83.66
2023-02-11T07:39:31.457Z,83.45
2023-02-11T07:40:31.414Z,83.45
2023-02-11T07:41:31.414Z,83.35
2023-02-11T07:42:31.419Z,83.45
2023-02-11T07:43:31.378Z,83.35
2023-02-11T07:44:31.373Z,83.45
2023-02-11T07:45:36.374Z,83.35
2023-02-11T07:46:31.377Z,83.35
2023-02-11T07:47:31.339Z,83.35
2023-02-11T07:48:31.321Z,83.56
2023-02-11T07:49:31.304Z,83.35
2023-02-11T07:50:31.312Z,83.35
2023-02-11T07:51:31.286Z,83.25
2023-02-11T07:52:31.304Z,83.04
2023-02-11T07:53:31.306Z,82.82
2023-02-11T07:54:31.249Z,83.25
2023-02-11T07:55:31.272Z,82.82
2023-02-11T07:56:36.248Z,82.89
2023-02-11T07:57:31.225Z,81.85
2023-02-11T07:58:31.207Z,82.27
2023-02-11T07:59:31.197Z,82.48
2023-02-11T08:00:31.209Z,82.23
2023-02-11T08:01:31.204Z,82.37
2023-02-11T08:02:31.258Z,81.60
2023-02-11T08:03:31.156Z,80.98
2023-02-11T08:04:31.164Z,81.92
2023-02-11T08:05:31.163Z,81.71
2023-02-11T08:06:31.119Z,81.40
2023-02-11T08:07:36.167Z,81.60
2023-02-11T08:08:31.101Z,81.50
2023-02-11T08:09:33.455Z,81.40
2023-02-11T08:10:31.094Z,81.40
2023-02-11T08:11:31.083Z,81.40
2023-02-11T08:12:31.068Z,80.84
2023-02-11T08:13:31.036Z,80.57
2023-02-11T08:14:31.024Z,80.43
2023-02-11T08:15:31.014Z,80.32
2023-02-11T08:16:31.072Z,80.32
2023-02-11T08:17:31.007Z,79.91
2023-02-11T08:18:36.014Z,79.59
2023-02-11T08:19:32.910Z,79.45
2023-02-11T08:20:30.960Z,79.45
2023-02-11T08:21:30.954Z,79.45
2023-02-11T08:22:30.952Z,79.35
2023-02-11T08:23:30.924Z,79.14
2023-02-11T08:24:30.912Z,79.21
2023-02-11T08:25:30.916Z,78.79
2023-02-11T08:26:30.896Z,78.79
2023-02-11T08:27:30.906Z,78.58
2023-02-11T08:28:31.045Z,78.69
2023-02-11T08:29:35.927Z,78.58
2023-02-11T08:30:30.859Z,78.38
2023-02-11T08:31:31.076Z,78.58
2023-02-11T08:32:30.822Z,78.27
2023-02-11T08:33:30.822Z,78.38
2023-02-11T08:34:30.798Z,78.27
2023-02-11T08:35:30.788Z,78.44
2023-02-11T08:36:30.775Z,77.40
2023-02-11T08:37:33.011Z,77.40
2023-02-11T08:38:30.763Z,78.17
2023-02-11T08:39:30.746Z,78.27
2023-02-11T08:40:35.751Z,78.34
2023-02-11T08:41:30.725Z,78.55
2023-02-11T08:42:30.712Z,78.03
2023-02-11T08:43:30.730Z,77.51
2023-02-11T08:44:30.689Z,77.51
2023-02-11T08:45:30.716Z,77.20
2023-02-11T08:46:30.748Z,77.40
2023-02-11T08:47:30.655Z,77.40
2023-02-11T08:48:30.656Z,77.37
2023-02-11T08:49:30.634Z,76.95
2023-02-11T08:50:30.693Z,76.85
2023-02-11T08:51:35.635Z,76.12
2023-02-11T08:52:30.604Z,76.33
2023-02-11T08:53:30.616Z,76.85
2023-02-11T08:54:30.573Z,76.64
2023-02-11T08:55:30.575Z,77.26
2023-02-11T08:56:30.560Z,77.68
2023-02-11T08:57:30.564Z,77.58
2023-02-11T08:58:30.543Z,77.26
2023-02-11T08:59:30.558Z,77.26
2023-02-11T09:00:30.506Z,77.12
2023-02-11T09:01:30.586Z,76.37
2023-02-11T09:02:35.551Z,76.06
2023-02-11T09:03:30.483Z,75.33
2023-02-11T09:04:30.465Z,75.92
2023-02-11T09:05:30.458Z,75.19
2023-02-11T09:06:30.440Z,74.67
2023-02-11T09:07:30.441Z,74.05
2023-02-11T09:08:30.424Z,73.70
2023-02-11T09:09:30.408Z,73.88
2023-02-11T09:10:30.392Z,73.22
2023-02-11T09:11:30.387Z,71.73
2023-02-11T09:12:30.372Z,71.08
2023-02-11T09:13:35.392Z,70.40
2023-02-11T09:14:30.351Z,69.67
2023-02-11T09:15:30.361Z,69.29
2023-02-11T09:16:30.362Z,70.29
2023-02-11T09:17:30.314Z,71.33
2023-02-11T09:18:30.332Z,71.77
2023-02-11T09:19:30.288Z,72.94
2023-02-11T09:20:30.305Z,73.57
2023-02-11T09:21:30.283Z,73.01
2023-02-11T09:22:30.350Z,71.84
2023-02-11T09:23:30.274Z,72.25
2023-02-11T09:24:35.273Z,71.91
2023-02-11T09:25:30.223Z,71.91
2023-02-11T09:26:30.284Z,70.95
2023-02-11T09:27:30.238Z,69.74
2023-02-11T09:28:30.277Z,68.68
2023-02-11T09:29:30.239Z,68.34
2023-02-11T09:30:30.353Z,67.55
2023-02-11T09:31:30.335Z,65.91
2023-02-11T09:32:30.144Z,65.59
2023-02-11T09:33:30.143Z,65.73
2023-02-11T09:34:30.183Z,66.31
2023-02-11T09:35:35.135Z,66.11
2023-02-11T09:36:30.109Z,65.46
2023-02-11T09:37:30.090Z,64.37
2023-02-11T09:38:30.080Z,62.59
2023-02-11T09:39:30.122Z,63.24
2023-02-11T09:40:30.054Z,64.74
2023-02-11T09:41:30.052Z,65.42
2023-02-11T09:42:30.047Z,66.79
2023-02-11T09:43:30.021Z,66.94
2023-02-11T09:44:30.026Z,65.77
2023-02-11T09:45:29.997Z,64.68
2023-02-11T09:46:35.097Z,63.49
2023-02-11T09:47:29.978Z,62.05
2023-02-11T09:48:29.977Z,62.15
2023-02-11T09:49:29.962Z,61.99
2023-02-11T09:50:29.945Z,60.58
2023-02-11T09:51:29.991Z,62.28
2023-02-11T09:52:29.925Z,63.00
2023-02-11T09:53:29.933Z,63.37
2023-02-11T09:54:29.918Z,64.29
2023-02-11T09:55:29.888Z,64.40
2023-02-11T09:56:29.893Z,64.06
2023-02-11T09:57:34.887Z,62.62
2023-02-11T09:58:29.854Z,64.17
2023-02-11T09:59:29.910Z,63.62
2023-02-11T10:00:29.876Z,62.77
2023-02-11T10:01:30.890Z,62.12
2023-02-11T10:02:29.874Z,62.15
2023-02-11T10:03:29.807Z,62.93
2023-02-11T10:04:29.894Z,63.65
2023-02-11T10:05:29.784Z,63.82
2023-02-11T10:06:29.825Z,63.65
2023-02-11T10:07:29.752Z,64.27
2023-02-11T10:08:34.765Z,64.61
2023-02-11T10:09:29.741Z,64.71
2023-02-11T10:10:29.732Z,64.89
2023-02-11T10:11:31.929Z,64.17
2023-02-11T10:12:29.696Z,64.03
2023-02-11T10:13:29.697Z,64.54
2023-02-11T10:14:29.724Z,63.82
2023-02-11T10:15:29.714Z,63.21
2023-02-11T10:16:29.662Z,63.62
2023-02-11T10:17:29.637Z,63.93
2023-02-11T10:18:29.651Z,64.68
2023-02-11T10:19:34.638Z,64.99
2023-02-11T10:20:29.626Z,64.81
2023-02-11T10:21:29.613Z,65.43
2023-02-11T10:22:29.590Z,64.99
2023-02-11T10:23:29.628Z,64.27
2023-02-11T10:24:29.567Z,64.75
2023-02-11T10:25:29.570Z,64.21
2023-02-11T10:26:29.549Z,63.90
2023-02-11T10:27:29.528Z,63.69
2023-02-11T10:28:29.643Z,64.51
2023-02-11T10:29:29.502Z,64.00
2023-02-11T10:30:34.564Z,64.41
2023-02-11T10:31:29.589Z,64.31
2023-02-11T10:32:29.473Z,64.28
2023-02-11T10:33:29.456Z,62.97
2023-02-11T10:34:29.471Z,63.28
2023-02-11T10:35:29.445Z,64.00
2023-02-11T10:36:29.425Z,63.49
2023-02-11T10:37:29.415Z,63.72
2023-02-11T10:38:29.404Z,64.44
2023-02-11T10:39:29.416Z,64.24
2023-02-11T10:40:29.394Z,64.44
2023-02-11T10:41:34.402Z,64.54
2023-02-11T10:42:29.360Z,64.44
2023-02-11T10:43:29.345Z,64.44
2023-02-11T10:44:29.343Z,64.54
2023-02-11T10:45:29.341Z,64.44
2023-02-11T10:46:29.361Z,64.89
2023-02-11T10:47:29.312Z,65.30
2023-02-11T10:48:29.288Z,65.89
2023-02-11T10:49:29.304Z,64.75
2023-02-11T10:50:29.291Z,64.34
2023-02-11T10:51:29.266Z,64.00
2023-02-11T10:52:34.267Z,64.72
2023-02-11T10:53:29.236Z,64.62
2023-02-11T10:54:29.222Z,63.87
2023-02-11T10:55:29.214Z,64.28
2023-02-11T10:56:29.505Z,64.48
2023-02-11T10:57:29.187Z,63.76
2023-02-11T10:58:29.192Z,64.04
2023-02-11T10:59:29.171Z,63.94
2023-02-11T11:00:29.157Z,62.48
2023-02-11T11:01:29.164Z,62.99
2023-02-11T11:02:29.136Z,63.20
2023-02-11T11:03:34.143Z,62.45
2023-02-11T11:04:29.141Z,61.52
2023-02-11T11:05:29.154Z,62.24
2023-02-11T11:06:29.147Z,61.80
2023-02-11T11:07:29.085Z,61.90
2023-02-11T11:08:29.069Z,61.70
2023-02-11T11:09:29.057Z,61.26
2023-02-11T11:10:29.056Z,60.49
2023-02-11T11:11:29.050Z,59.94
2023-02-11T11:12:29.039Z,58.28
2023-02-11T11:13:29.037Z,58.20
2023-02-11T11:14:34.029Z,58.48
2023-02-11T11:15:28.992Z,58.69
2023-02-11T11:16:29.115Z,57.56
2023-02-11T11:17:28.964Z,57.51
2023-02-11T11:18:28.953Z,58.33
2023-02-11T11:19:28.942Z,58.23
2023-02-11T11:20:28.934Z,59.05
2023-02-11T11:21:28.940Z,59.59
2023-02-11T11:22:28.929Z,59.18
2023-02-11T11:23:28.900Z,60.41
2023-02-11T11:24:28.890Z,60.10
2023-02-11T11:25:33.897Z,60.44
2023-02-11T11:26:28.879Z,60.85
2023-02-11T11:27:28.850Z,61.60
2023-02-11T11:28:28.874Z,61.46
2023-02-11T11:29:28.828Z,61.36
2023-02-11T11:30:28.873Z,61.44
2023-02-11T11:31:28.984Z,59.59
2023-02-11T11:32:28.794Z,59.89
2023-02-11T11:33:28.778Z,59.80
2023-02-11T11:34:28.772Z,59.52
2023-02-11T11:35:28.757Z,59.59
2023-02-11T11:36:33.780Z,60.54
2023-02-11T11:37:28.741Z,60.51
2023-02-11T11:38:28.749Z,59.69
2023-02-11T11:39:28.709Z,60.41
2023-02-11T11:40:28.709Z,59.84
2023-02-11T11:41:28.697Z,58.81
2023-02-11T11:42:28.697Z,58.72
2023-02-11T11:43:28.668Z,59.12
2023-02-11T11:44:28.665Z,60.00
2023-02-11T11:45:28.648Z,59.69
2023-02-11T11:46:28.684Z,60.31
2023-02-11T11:47:33.639Z,60.13
2023-02-11T11:48:28.607Z,60.95
2023-02-11T11:49:28.613Z,61.77
2023-02-11T11:50:28.602Z,61.39
2023-02-11T11:51:28.649Z,62.04
2023-02-11T11:52:28.563Z,61.62
2023-02-11T11:53:28.549Z,61.93
2023-02-11T11:54:28.555Z,61.70
2023-02-11T11:55:28.535Z,61.49
2023-02-11T11:56:28.519Z,61.16
2023-02-11T11:57:28.525Z,61.05
2023-02-11T11:58:33.515Z,61.26
2023-02-11T11:59:28.498Z,61.36
2023-02-11T12:00:28.469Z,61.05
2023-02-11T12:01:28.472Z,61.80
2023-02-11T12:02:28.460Z,62.45
2023-02-11T12:03:28.471Z,63.91
2023-02-11T12:04:28.427Z,64.36
2023-02-11T12:05:28.423Z,64.36
2023-02-11T12:06:28.409Z,64.46
2023-02-11T12:07:28.417Z,64.73
2023-02-11T12:08:28.376Z,63.98
2023-02-11T12:09:33.404Z,63.85
2023-02-11T12:10:28.385Z,62.39
2023-02-11T12:11:28.353Z,62.15
2023-02-11T12:12:28.354Z,61.95
2023-02-11T12:13:28.349Z,61.00
2023-02-11T12:14:28.314Z,60.94
2023-02-11T12:15:28.314Z,60.63
2023-02-11T12:16:28.354Z,59.81
2023-02-11T12:17:28.284Z,61.00
2023-02-11T12:18:28.266Z,61.54
2023-02-11T12:19:28.248Z,61.54
2023-02-11T12:20:33.264Z,61.79
2023-02-11T12:21:28.243Z,60.66
2023-02-11T12:22:28.227Z,61.51
2023-02-11T12:23:28.213Z,62.87
2023-02-11T12:24:28.196Z,62.63
2023-02-11T12:25:28.196Z,62.10
2023-02-11T12:26:28.198Z,61.25
2023-02-11T12:27:28.163Z,61.15
2023-02-11T12:28:28.179Z,61.48
2023-02-11T12:29:28.142Z,61.96
2023-02-11T12:30:28.145Z,61.99
2023-02-11T12:31:33.179Z,61.76
2023-02-11T12:32:28.112Z,61.09
2023-02-11T12:33:28.088Z,60.37
2023-02-11T12:34:28.092Z,59.86
2023-02-11T12:35:28.077Z,60.35
2023-02-11T12:36:28.153Z,60.06
2023-02-11T12:37:28.056Z,60.06
2023-02-11T12:38:28.037Z,61.43
2023-02-11T12:39:28.022Z,61.09
2023-02-11T12:40:28.015Z,60.44
2023-02-11T12:41:28.063Z,59.63
2023-02-11T12:42:33.022Z,59.42
2023-02-11T12:43:28.123Z,59.73
2023-02-11T12:44:27.965Z,59.42
2023-02-11T12:45:28.021Z,60.47
2023-02-11T12:46:27.953Z,61.43
2023-02-11T12:47:27.946Z,62.10
2023-02-11T12:48:27.919Z,63.69
2023-02-11T12:49:27.913Z,64.31
2023-02-11T12:50:27.899Z,64.13
2023-02-11T12:51:27.884Z,65.12
2023-02-11T12:52:27.884Z,64.10
2023-02-11T12:53:32.884Z,64.41
2023-02-11T12:54:27.854Z,64.20
2023-02-11T12:55:27.839Z,63.79
2023-02-11T12:56:27.835Z,64.20
2023-02-11T12:57:27.858Z,64.54
2023-02-11T12:58:42.941Z,64.85
2023-02-11T12:59:28.798Z,64.95
2023-02-11T13:00:27.784Z,65.26
2023-02-11T13:01:27.920Z,65.57
2023-02-11T13:02:27.797Z,65.36
2023-02-11T13:03:27.771Z,65.29
2023-02-11T13:04:32.759Z,65.26
2023-02-11T13:05:27.729Z,65.47
2023-02-11T13:06:27.747Z,65.88
2023-02-11T13:07:27.713Z,66.70
2023-02-11T13:08:27.711Z,66.60
2023-02-11T13:09:27.683Z,66.11
2023-02-11T13:10:27.669Z,66.19
2023-02-11T13:11:27.664Z,66.49
2023-02-11T13:12:27.646Z,66.19
2023-02-11T13:13:27.671Z,66.60
2023-02-11T13:14:27.624Z,66.49
2023-02-11T13:15:32.637Z,66.70
2023-02-11T13:16:27.681Z,67.11
2023-02-11T13:17:27.595Z,67.55
2023-02-11T13:18:27.593Z,66.93
2023-02-11T13:19:27.583Z,67.62
2023-02-11T13:20:27.566Z,67.24
2023-02-11T13:21:27.548Z,67.35
2023-02-11T13:22:27.537Z,67.96
2023-02-11T13:23:29.408Z,67.44
2023-02-11T13:24:27.519Z,67.35
2023-02-11T13:25:27.502Z,67.86
2023-02-11T13:26:32.566Z,68.16
2023-02-11T13:27:27.478Z,67.96
2023-02-11T13:28:27.547Z,68.16
2023-02-11T13:29:27.499Z,67.96
2023-02-11T13:30:27.496Z,68.16
2023-02-11T13:31:27.609Z,67.96
2023-02-11T13:32:27.426Z,67.96
2023-02-11T13:33:27.423Z,68.37
2023-02-11T13:34:27.419Z,68.16
2023-02-11T13:35:27.392Z,68.06
2023-02-11T13:36:27.396Z,68.06
2023-02-11T13:37:32.399Z,68.57
2023-02-11T13:38:27.370Z,68.68
2023-02-11T13:39:27.356Z,68.48
2023-02-11T13:40:27.331Z,68.91
2023-02-11T13:41:27.334Z,68.27
2023-02-11T13:42:27.324Z,69.43
2023-02-11T13:43:27.309Z,69.94
2023-02-11T13:44:27.286Z,70.70
2023-02-11T13:45:27.306Z,71.00
2023-02-11T13:46:27.314Z,71.11
2023-02-11T13:47:27.251Z,70.56
2023-02-11T13:48:32.275Z,70.25
2023-02-11T13:49:27.231Z,70.49
2023-02-11T13:50:27.219Z,70.59
2023-02-11T13:51:27.209Z,70.59
2023-02-11T13:52:27.197Z,70.39
2023-02-11T13:53:27.197Z,70.79
2023-02-11T13:54:27.174Z,71.00
2023-02-11T13:55:27.160Z,70.90
2023-02-11T13:56:27.151Z,70.79
2023-02-11T13:57:27.146Z,71.41
2023-02-11T13:58:27.146Z,71.31
2023-02-11T13:59:32.136Z,71.41
2023-02-11T14:00:27.104Z,71.41
2023-02-11T14:01:27.183Z,71.00
2023-02-11T14:02:27.138Z,71.11
2023-02-11T14:03:27.084Z,71.72
2023-02-11T14:04:27.059Z,71.62
2023-02-11T14:05:27.048Z,72.34
2023-02-11T14:06:27.044Z,72.85
2023-02-11T14:07:27.025Z,72.55
2023-02-11T14:08:27.022Z,72.96
2023-02-11T14:09:27.005Z,73.27
2023-02-11T14:10:32.018Z,74.02
2023-02-11T14:11:26.983Z,74.95
2023-02-11T14:12:26.969Z,75.46
2023-02-11T14:13:26.970Z,75.56
2023-02-11T14:14:26.953Z,75.46
2023-02-11T14:15:26.937Z,75.46
2023-02-11T14:16:37.408Z,75.39
2023-02-11T14:17:28.004Z,75.39
2023-02-11T14:18:26.907Z,75.76
2023-02-11T14:19:26.937Z,75.56
2023-02-11T14:20:26.887Z,75.76
2023-02-11T14:21:31.893Z,76.38
2023-02-11T14:22:26.855Z,76.90
2023-02-11T14:23:26.848Z,76.79
2023-02-11T14:24:26.847Z,76.79
2023-02-11T14:25:26.825Z,76.79
2023-02-11T14:26:26.820Z,76.59
2023-02-11T14:27:26.802Z,76.69
2023-02-11T14:28:26.950Z,77.10
2023-02-11T14:29:26.790Z,76.48
2023-02-11T14:30:26.764Z,76.07
2023-02-11T14:31:26.956Z,76.28
2023-02-11T14:32:31.781Z,76.28
2023-02-11T14:33:26.737Z,76.21
2023-02-11T14:34:26.732Z,76.59
2023-02-11T14:35:26.710Z,76.59
2023-02-11T14:36:26.699Z,76.28
2023-02-11T14:37:26.688Z,76.07
2023-02-11T14:38:26.679Z,76.18
2023-02-11T14:39:26.704Z,75.76
2023-02-11T14:40:26.684Z,75.67
2023-02-11T14:41:26.697Z,75.80
2023-02-11T14:42:26.674Z,75.46
2023-02-11T14:43:31.653Z,75.67
2023-02-11T14:44:26.629Z,75.59
2023-02-11T14:45:26.600Z,75.56
2023-02-11T14:46:26.689Z,75.56
2023-02-11T14:47:26.909Z,75.49
2023-02-11T14:48:26.601Z,75.46
2023-02-11T14:49:26.569Z,75.39
2023-02-11T14:50:26.545Z,74.95
2023-02-11T14:51:26.531Z,74.63
2023-02-11T14:52:26.521Z,75.35
2023-02-11T14:53:26.534Z,75.35
2023-02-11T14:54:31.526Z,75.25
2023-02-11T14:55:26.498Z,74.95
2023-02-11T14:56:26.550Z,75.25
2023-02-11T14:57:26.467Z,75.56
2023-02-11T14:58:26.458Z,75.39
2023-02-11T14:59:26.453Z,76.07
2023-02-11T15:00:26.506Z,75.97
2023-02-11T15:01:26.433Z,75.90
2023-02-11T15:02:26.499Z,76.52
2023-02-11T15:03:26.397Z,76.48
2023-02-11T15:04:26.422Z,76.59
2023-02-11T15:05:31.401Z,76.28
2023-02-11T15:06:26.358Z,76.11
2023-02-11T15:07:26.351Z,76.93
2023-02-11T15:08:26.337Z,76.69
2023-02-11T15:09:26.376Z,76.93
2023-02-11T15:10:26.335Z,77.55
2023-02-11T15:11:26.309Z,77.65
2023-02-11T15:12:26.295Z,77.69
2023-02-11T15:13:26.287Z,77.65
2023-02-11T15:14:26.276Z,77.96
2023-02-11T15:15:26.257Z,77.96
2023-02-11T15:16:31.268Z,78.27
2023-02-11T15:17:26.234Z,77.96
2023-02-11T15:18:26.245Z,78.06
2023-02-11T15:19:26.225Z,78.17
2023-02-11T15:20:26.227Z,78.17
2023-02-11T15:21:26.190Z,78.37
2023-02-11T15:22:26.176Z,78.37
2023-02-11T15:23:26.184Z,77.96
2023-02-11T15:24:26.188Z,78.37
2023-02-11T15:25:26.145Z,78.23
2023-02-11T15:26:26.196Z,78.27
2023-02-11T15:27:31.148Z,78.13
2023-02-11T15:28:26.277Z,77.86
2023-02-11T15:29:26.140Z,77.82
2023-02-11T15:30:26.095Z,77.20
2023-02-11T15:31:26.293Z,77.41
2023-02-11T15:32:26.186Z,77.41
2023-02-11T15:33:26.085Z,77.41
2023-02-11T15:34:26.056Z,77.41
2023-02-11T15:35:26.059Z,77.72
2023-02-11T15:36:26.047Z,77.55
2023-02-11T15:37:26.018Z,77.96
2023-02-11T15:38:31.026Z,77.45
2023-02-11T15:39:25.987Z,77.55
2023-02-11T15:40:25.984Z,77.24
2023-02-11T15:41:25.964Z,77.75
2023-02-11T15:42:25.955Z,77.75
2023-02-11T15:43:25.947Z,77.75
2023-02-11T15:44:25.928Z,77.75
2023-02-11T15:45:25.953Z,77.75
2023-02-11T15:46:25.946Z,77.72
2023-02-11T15:47:25.911Z,77.96
2023-02-11T15:48:25.885Z,77.72
2023-02-11T15:49:30.895Z,77.55
2023-02-11T15:50:25.878Z,77.62
2023-02-11T15:51:25.851Z,77.86
2023-02-11T15:52:25.863Z,77.55
2023-02-11T15:53:25.832Z,77.45
2023-02-11T15:54:25.875Z,77.45
2023-02-11T15:55:25.843Z,77.58
2023-02-11T15:56:25.854Z,77.55
2023-02-11T15:57:25.788Z,76.93
2023-02-11T15:58:25.771Z,76.83
2023-02-11T15:59:25.780Z,76.83
2023-02-11T16:00:30.781Z,76.73
2023-02-11T16:01:25.781Z,76.83
2023-02-11T16:02:25.723Z,77.14
2023-02-11T16:03:25.714Z,77.03
2023-02-11T16:04:25.773Z,77.03
2023-02-11T16:05:25.709Z,76.73
2023-02-11T16:06:25.691Z,76.73
2023-02-11T16:07:25.669Z,76.52
2023-02-11T16:08:25.687Z,76.62
2023-02-11T16:09:25.647Z,76.42
2023-02-11T16:10:25.652Z,76.42
2023-02-11T16:11:30.648Z,76.31
2023-02-11T16:12:25.623Z,76.42
2023-02-11T16:13:25.603Z,76.42
2023-02-11T16:14:25.608Z,76.52
2023-02-11T16:15:25.595Z,76.83
2023-02-11T16:16:25.607Z,76.73
2023-02-11T16:17:25.556Z,76.73
2023-02-11T16:18:36.795Z,76.73
2023-02-11T16:19:26.547Z,76.83
2023-02-11T16:20:25.574Z,76.42
2023-02-11T16:21:25.552Z,77.75
2023-02-11T16:22:30.525Z,77.45
2023-02-11T16:23:25.495Z,77.65
2023-02-11T16:24:25.497Z,78.06
2023-02-11T16:25:25.480Z,78.30
2023-02-11T16:26:25.452Z,78.20
2023-02-11T16:27:25.485Z,78.47
2023-02-11T16:28:25.522Z,78.51
2023-02-11T16:29:25.433Z,78.82
2023-02-11T16:30:25.475Z,79.50
2023-02-11T16:31:25.569Z,79.23
2023-02-11T16:32:25.393Z,79.54
2023-02-11T16:33:30.405Z,79.64
2023-02-11T16:34:25.372Z,79.61
2023-02-11T16:35:25.350Z,78.92
2023-02-11T16:36:25.493Z,78.92
2023-02-11T16:37:25.331Z,79.03
2023-02-11T16:38:25.328Z,79.44
2023-02-11T16:39:25.319Z,79.13
2023-02-11T16:40:25.324Z,80.16
2023-02-11T16:41:25.298Z,79.85
2023-02-11T16:42:25.270Z,79.85
2023-02-11T16:43:25.263Z,79.88
2023-02-11T16:44:31.015Z,79.95
2023-02-11T16:45:25.238Z,80.51
2023-02-11T16:46:25.279Z,80.57
2023-02-11T16:47:25.217Z,80.26
2023-02-11T16:48:25.206Z,80.47
2023-02-11T16:49:25.221Z,80.71
2023-02-11T16:50:25.197Z,80.67
2023-02-11T16:51:25.181Z,80.98
2023-02-11T16:52:25.181Z,79.68
2023-02-11T16:53:25.150Z,80.91
2023-02-11T16:54:25.139Z,80.88
2023-02-11T16:55:30.168Z,79.79
2023-02-11T16:56:25.184Z,80.16
2023-02-11T16:57:26.921Z,80.77
2023-02-11T16:58:25.265Z,80.40
2023-02-11T16:59:25.083Z,80.71
2023-02-11T17:00:25.080Z,81.23
2023-02-11T17:01:25.149Z,81.33
2023-02-11T17:02:25.045Z,81.12
2023-02-11T17:03:25.039Z,81.12
2023-02-11T17:04:25.109Z,81.02
2023-02-11T17:05:25.020Z,81.02
2023-02-11T17:06:30.047Z,81.12
2023-02-11T17:07:25.002Z,80.51
2023-02-11T17:08:24.982Z,80.40
2023-02-11T17:09:24.964Z,80.71
2023-02-11T17:10:24.957Z,80.71
2023-02-11T17:11:24.983Z,80.81
2023-02-11T17:12:24.938Z,80.91
2023-02-11T17:13:24.928Z,80.61
2023-02-11T17:14:24.911Z,80.91
2023-02-11T17:15:24.905Z,80.91
2023-02-11T17:16:25.054Z,79.88
2023-02-11T17:17:29.907Z,80.61
2023-02-11T17:18:24.862Z,80.61
2023-02-11T17:19:24.849Z,80.51
2023-02-11T17:20:24.853Z,80.61
2023-02-11T17:21:24.867Z,80.40
2023-02-11T17:22:24.821Z,80.61
2023-02-11T17:23:24.831Z,80.71
2023-02-11T17:24:24.794Z,80.71
2023-02-11T17:25:24.784Z,80.71
2023-02-11T17:26:24.796Z,80.71
2023-02-11T17:27:24.778Z,80.51
2023-02-11T17:28:29.838Z,79.85
2023-02-11T17:29:24.742Z,80.71
2023-02-11T17:30:24.735Z,80.30
2023-02-11T17:31:24.847Z,80.36
2023-02-11T17:32:24.804Z,80.09
2023-02-11T17:33:24.694Z,79.88
2023-02-11T17:34:24.679Z,79.64
2023-02-11T17:35:24.685Z,79.75
2023-02-11T17:36:24.660Z,79.75
2023-02-11T17:37:24.669Z,79.75
2023-02-11T17:38:24.636Z,79.85
2023-02-11T17:39:29.648Z,80.19
2023-02-11T17:40:24.621Z,79.75
2023-02-11T17:41:24.615Z,79.75
2023-02-11T17:42:24.612Z,79.88
2023-02-11T17:43:24.603Z,80.05
2023-02-11T17:44:24.567Z,80.16
2023-02-11T17:45:24.576Z,80.16
2023-02-11T17:46:24.545Z,80.16
2023-02-11T17:47:24.541Z,80.05
2023-02-11T17:48:24.528Z,80.57
2023-02-11T17:49:24.515Z,80.47
2023-02-11T17:50:29.651Z,80.61
2023-02-11T17:51:24.515Z,80.36
2023-02-11T17:52:24.521Z,80.36